sensor_id;sensor_type;location;lat;lon;timestamp;P1;durP1;ratioP1;P2;durP2;ratioP2
7213;SDS011;3648;50.614;13.830;2022-11-20T00:01:19;34.33;;;21.47;;
7213;SDS011;3648;50.614;13.830;2022-11-20T00:03:47;30.13;;;20.43;;
7213;SDS011;3648;50.614;13.830;2022-11-20T00:06:16;37.03;;;22.60;;
7213;SDS011;3648;50.614;13.830;2022-11-20T00:08:44;39.10;;;24.27;;
7213;SDS011;3648;50.614;13.830;2022-11-20T00:11:12;36.37;;;22.67;;
7213;SDS011;3648;50.614;13.830;2022-11-20T00:13:41;36.70;;;22.63;;
7213;SDS011;3648;50.614;13.830;2022-11-20T00:16:10;32.80;;;21.57;;
7213;SDS011;3648;50.614;13.830;2022-11-20T00:18:38;33.47;;;19.93;;
7213;SDS011;3648;50.614;13.830;2022-11-20T00:21:06;31.93;;;21.07;;
7213;SDS011;3648;50.614;13.830;2022-11-20T00:23:35;32.13;;;18.30;;
7213;SDS011;3648;50.614;13.830;2022-11-20T00:26:02;31.10;;;18.97;;
7213;SDS011;3648;50.614;13.830;2022-11-20T00:28:30;33.37;;;18.80;;
7213;SDS011;3648;50.614;13.830;2022-11-20T00:31:00;28.77;;;17.97;;
7213;SDS011;3648;50.614;13.830;2022-11-20T00:33:30;28.83;;;17.80;;
7213;SDS011;3648;50.614;13.830;2022-11-20T00:36:00;28.03;;;17.33;;
7213;SDS011;3648;50.614;13.830;2022-11-20T00:38:28;30.27;;;18.77;;
7213;SDS011;3648;50.614;13.830;2022-11-20T00:40:56;41.17;;;25.87;;
7213;SDS011;3648;50.614;13.830;2022-11-20T00:43:24;35.37;;;21.77;;
7213;SDS011;3648;50.614;13.830;2022-11-20T00:45:51;37.17;;;22.53;;
7213;SDS011;3648;50.614;13.830;2022-11-20T00:48:22;34.00;;;21.27;;
7213;SDS011;3648;50.614;13.830;2022-11-20T00:50:50;34.47;;;20.80;;
7213;SDS011;3648;50.614;13.830;2022-11-20T00:53:17;33.43;;;19.30;;
7213;SDS011;3648;50.614;13.830;2022-11-20T00:55:51;32.83;;;19.80;;
7213;SDS011;3648;50.614;13.830;2022-11-20T00:58:19;35.70;;;20.10;;
7213;SDS011;3648;50.614;13.830;2022-11-20T01:00:46;32.53;;;19.33;;
7213;SDS011;3648;50.614;13.830;2022-11-20T01:03:14;36.37;;;20.60;;
7213;SDS011;3648;50.614;13.830;2022-11-20T01:05:41;35.43;;;20.17;;
7213;SDS011;3648;50.614;13.830;2022-11-20T01:08:09;32.50;;;19.20;;
7213;SDS011;3648;50.614;13.830;2022-11-20T01:10:36;37.63;;;21.30;;
7213;SDS011;3648;50.614;13.830;2022-11-20T01:13:03;34.20;;;21.30;;
7213;SDS011;3648;50.614;13.830;2022-11-20T01:15:48;34.53;;;20.07;;
7213;SDS011;3648;50.614;13.830;2022-11-20T01:18:15;34.23;;;20.50;;
7213;SDS011;3648;50.614;13.830;2022-11-20T01:20:42;35.60;;;20.63;;
7213;SDS011;3648;50.614;13.830;2022-11-20T01:23:10;36.17;;;21.87;;
7213;SDS011;3648;50.614;13.830;2022-11-20T01:25:37;36.17;;;20.77;;
7213;SDS011;3648;50.614;13.830;2022-11-20T01:28:04;39.33;;;23.07;;
7213;SDS011;3648;50.614;13.830;2022-11-20T01:30:31;56.87;;;28.20;;
7213;SDS011;3648;50.614;13.830;2022-11-20T01:32:58;50.73;;;29.03;;
7213;SDS011;3648;50.614;13.830;2022-11-20T01:35:25;41.07;;;25.47;;
7213;SDS011;3648;50.614;13.830;2022-11-20T01:37:52;41.40;;;23.73;;
7213;SDS011;3648;50.614;13.830;2022-11-20T01:40:20;43.67;;;23.97;;
7213;SDS011;3648;50.614;13.830;2022-11-20T01:42:52;39.97;;;23.57;;
7213;SDS011;3648;50.614;13.830;2022-11-20T01:48:42;39.57;;;22.87;;
7213;SDS011;3648;50.614;13.830;2022-11-20T01:51:18;44.63;;;25.97;;
7213;SDS011;3648;50.614;13.830;2022-11-20T01:53:49;47.73;;;25.70;;
7213;SDS011;3648;50.614;13.830;2022-11-20T01:56:19;50.67;;;24.77;;
7213;SDS011;3648;50.614;13.830;2022-11-20T01:58:48;38.47;;;22.43;;
7213;SDS011;3648;50.614;13.830;2022-11-20T02:01:20;40.17;;;23.57;;
7213;SDS011;3648;50.614;13.830;2022-11-20T02:03:47;41.10;;;22.53;;
7213;SDS011;3648;50.614;13.830;2022-11-20T02:06:17;39.13;;;23.17;;
7213;SDS011;3648;50.614;13.830;2022-11-20T02:08:49;36.63;;;22.80;;
7213;SDS011;3648;50.614;13.830;2022-11-20T02:11:16;40.03;;;22.90;;
7213;SDS011;3648;50.614;13.830;2022-11-20T02:13:45;36.70;;;21.80;;
7213;SDS011;3648;50.614;13.830;2022-11-20T02:16:13;37.83;;;23.50;;
7213;SDS011;3648;50.614;13.830;2022-11-20T02:18:42;36.97;;;21.87;;
7213;SDS011;3648;50.614;13.830;2022-11-20T02:21:13;37.20;;;21.67;;
7213;SDS011;3648;50.614;13.830;2022-11-20T02:26:43;40.07;;;22.17;;
7213;SDS011;3648;50.614;13.830;2022-11-20T02:29:15;38.07;;;21.87;;
7213;SDS011;3648;50.614;13.830;2022-11-20T02:31:45;44.87;;;22.90;;
7213;SDS011;3648;50.614;13.830;2022-11-20T02:34:13;43.43;;;23.60;;
7213;SDS011;3648;50.614;13.830;2022-11-20T02:36:40;38.10;;;23.33;;
7213;SDS011;3648;50.614;13.830;2022-11-20T02:39:10;43.67;;;25.40;;
7213;SDS011;3648;50.614;13.830;2022-11-20T02:41:41;40.73;;;24.27;;
7213;SDS011;3648;50.614;13.830;2022-11-20T02:44:09;48.23;;;26.23;;
7213;SDS011;3648;50.614;13.830;2022-11-20T02:46:36;43.97;;;23.77;;
7213;SDS011;3648;50.614;13.830;2022-11-20T02:49:03;45.77;;;23.37;;
7213;SDS011;3648;50.614;13.830;2022-11-20T02:51:31;43.67;;;24.83;;
7213;SDS011;3648;50.614;13.830;2022-11-20T02:53:58;43.20;;;24.80;;
7213;SDS011;3648;50.614;13.830;2022-11-20T02:56:26;45.50;;;26.47;;
7213;SDS011;3648;50.614;13.830;2022-11-20T02:58:53;44.40;;;25.37;;
7213;SDS011;3648;50.614;13.830;2022-11-20T03:01:20;40.90;;;25.43;;
7213;SDS011;3648;50.614;13.830;2022-11-20T03:03:47;46.17;;;26.93;;
7213;SDS011;3648;50.614;13.830;2022-11-20T03:06:14;46.27;;;27.57;;
7213;SDS011;3648;50.614;13.830;2022-11-20T03:08:41;40.17;;;24.23;;
7213;SDS011;3648;50.614;13.830;2022-11-20T03:11:09;46.80;;;26.43;;
7213;SDS011;3648;50.614;13.830;2022-11-20T03:13:37;41.97;;;25.27;;
7213;SDS011;3648;50.614;13.830;2022-11-20T03:16:08;44.27;;;25.47;;
7213;SDS011;3648;50.614;13.830;2022-11-20T03:18:36;41.33;;;23.80;;
7213;SDS011;3648;50.614;13.830;2022-11-20T03:21:04;44.63;;;25.27;;
7213;SDS011;3648;50.614;13.830;2022-11-20T03:23:31;45.07;;;25.50;;
7213;SDS011;3648;50.614;13.830;2022-11-20T03:26:08;46.80;;;27.17;;
7213;SDS011;3648;50.614;13.830;2022-11-20T03:28:38;47.03;;;27.10;;
7213;SDS011;3648;50.614;13.830;2022-11-20T03:31:05;40.30;;;23.63;;
7213;SDS011;3648;50.614;13.830;2022-11-20T03:33:33;43.57;;;25.63;;
7213;SDS011;3648;50.614;13.830;2022-11-20T03:36:01;41.23;;;24.13;;
7213;SDS011;3648;50.614;13.830;2022-11-20T03:38:29;41.57;;;24.70;;
7213;SDS011;3648;50.614;13.830;2022-11-20T03:40:58;43.37;;;24.47;;
7213;SDS011;3648;50.614;13.830;2022-11-20T03:43:26;42.60;;;25.13;;
7213;SDS011;3648;50.614;13.830;2022-11-20T03:45:54;40.27;;;24.30;;
7213;SDS011;3648;50.614;13.830;2022-11-20T03:48:22;41.33;;;24.33;;
7213;SDS011;3648;50.614;13.830;2022-11-20T03:50:49;40.33;;;23.97;;
7213;SDS011;3648;50.614;13.830;2022-11-20T03:53:16;39.93;;;23.60;;
7213;SDS011;3648;50.614;13.830;2022-11-20T03:55:43;38.60;;;23.00;;
7213;SDS011;3648;50.614;13.830;2022-11-20T03:58:10;37.03;;;21.80;;
7213;SDS011;3648;50.614;13.830;2022-11-20T04:00:38;35.40;;;22.00;;
7213;SDS011;3648;50.614;13.830;2022-11-20T04:03:06;33.17;;;20.53;;
7213;SDS011;3648;50.614;13.830;2022-11-20T04:05:33;32.63;;;21.27;;
7213;SDS011;3648;50.614;13.830;2022-11-20T04:08:01;37.23;;;21.47;;
7213;SDS011;3648;50.614;13.830;2022-11-20T04:10:28;39.40;;;24.53;;
7213;SDS011;3648;50.614;13.830;2022-11-20T04:12:55;33.00;;;20.50;;
7213;SDS011;3648;50.614;13.830;2022-11-20T04:15:22;33.17;;;21.50;;
7213;SDS011;3648;50.614;13.830;2022-11-20T04:17:49;35.27;;;21.77;;
7213;SDS011;3648;50.614;13.830;2022-11-20T04:20:17;37.40;;;22.53;;
7213;SDS011;3648;50.614;13.830;2022-11-20T04:22:44;36.43;;;22.03;;
7213;SDS011;3648;50.614;13.830;2022-11-20T04:25:11;33.37;;;20.90;;
7213;SDS011;3648;50.614;13.830;2022-11-20T04:27:38;37.37;;;23.03;;
7213;SDS011;3648;50.614;13.830;2022-11-20T04:30:07;35.13;;;22.27;;
7213;SDS011;3648;50.614;13.830;2022-11-20T04:32:34;37.10;;;22.20;;
7213;SDS011;3648;50.614;13.830;2022-11-20T04:35:01;37.77;;;22.33;;
7213;SDS011;3648;50.614;13.830;2022-11-20T04:37:30;34.77;;;22.13;;
7213;SDS011;3648;50.614;13.830;2022-11-20T04:39:57;34.97;;;21.63;;
7213;SDS011;3648;50.614;13.830;2022-11-20T04:42:24;32.47;;;20.80;;
7213;SDS011;3648;50.614;13.830;2022-11-20T04:44:54;36.43;;;21.93;;
7213;SDS011;3648;50.614;13.830;2022-11-20T04:47:21;40.00;;;21.47;;
7213;SDS011;3648;50.614;13.830;2022-11-20T04:49:48;35.50;;;21.20;;
7213;SDS011;3648;50.614;13.830;2022-11-20T04:52:15;32.47;;;20.60;;
7213;SDS011;3648;50.614;13.830;2022-11-20T04:54:44;36.37;;;23.13;;
7213;SDS011;3648;50.614;13.830;2022-11-20T04:57:12;36.17;;;22.73;;
7213;SDS011;3648;50.614;13.830;2022-11-20T04:59:40;34.07;;;21.87;;
7213;SDS011;3648;50.614;13.830;2022-11-20T05:02:07;37.73;;;23.53;;
7213;SDS011;3648;50.614;13.830;2022-11-20T05:04:34;36.57;;;22.57;;
7213;SDS011;3648;50.614;13.830;2022-11-20T05:07:01;35.33;;;22.63;;
7213;SDS011;3648;50.614;13.830;2022-11-20T05:09:29;33.27;;;21.17;;
7213;SDS011;3648;50.614;13.830;2022-11-20T05:11:57;39.90;;;22.67;;
7213;SDS011;3648;50.614;13.830;2022-11-20T05:14:24;34.93;;;21.97;;
7213;SDS011;3648;50.614;13.830;2022-11-20T05:16:51;34.13;;;21.93;;
7213;SDS011;3648;50.614;13.830;2022-11-20T05:19:18;37.43;;;22.07;;
7213;SDS011;3648;50.614;13.830;2022-11-20T05:21:45;34.73;;;22.67;;
7213;SDS011;3648;50.614;13.830;2022-11-20T05:24:12;35.63;;;21.40;;
7213;SDS011;3648;50.614;13.830;2022-11-20T05:26:39;35.47;;;23.23;;
7213;SDS011;3648;50.614;13.830;2022-11-20T05:29:09;32.00;;;19.53;;
7213;SDS011;3648;50.614;13.830;2022-11-20T05:31:36;33.90;;;19.97;;
7213;SDS011;3648;50.614;13.830;2022-11-20T05:34:05;32.17;;;20.37;;
7213;SDS011;3648;50.614;13.830;2022-11-20T05:36:33;31.30;;;19.33;;
7213;SDS011;3648;50.614;13.830;2022-11-20T05:39:00;28.30;;;18.73;;
7213;SDS011;3648;50.614;13.830;2022-11-20T05:41:27;30.80;;;19.47;;
7213;SDS011;3648;50.614;13.830;2022-11-20T05:43:55;30.90;;;19.77;;
7213;SDS011;3648;50.614;13.830;2022-11-20T05:46:24;34.50;;;22.53;;
7213;SDS011;3648;50.614;13.830;2022-11-20T05:48:51;39.00;;;24.67;;
7213;SDS011;3648;50.614;13.830;2022-11-20T05:51:18;47.40;;;28.40;;
7213;SDS011;3648;50.614;13.830;2022-11-20T05:53:45;56.47;;;32.33;;
7213;SDS011;3648;50.614;13.830;2022-11-20T05:56:13;38.83;;;25.03;;
7213;SDS011;3648;50.614;13.830;2022-11-20T05:58:42;42.33;;;26.13;;
7213;SDS011;3648;50.614;13.830;2022-11-20T06:01:10;34.87;;;22.13;;
7213;SDS011;3648;50.614;13.830;2022-11-20T06:03:40;40.97;;;24.27;;
7213;SDS011;3648;50.614;13.830;2022-11-20T06:06:11;36.17;;;22.90;;
7213;SDS011;3648;50.614;13.830;2022-11-20T06:08:38;40.57;;;23.60;;
7213;SDS011;3648;50.614;13.830;2022-11-20T06:11:06;39.47;;;23.70;;
7213;SDS011;3648;50.614;13.830;2022-11-20T06:13:35;41.33;;;25.23;;
7213;SDS011;3648;50.614;13.830;2022-11-20T06:16:03;42.03;;;25.37;;
7213;SDS011;3648;50.614;13.830;2022-11-20T06:18:30;46.73;;;27.63;;
7213;SDS011;3648;50.614;13.830;2022-11-20T06:21:02;52.47;;;28.87;;
7213;SDS011;3648;50.614;13.830;2022-11-20T06:23:31;46.47;;;27.33;;
7213;SDS011;3648;50.614;13.830;2022-11-20T06:26:00;46.07;;;27.73;;
7213;SDS011;3648;50.614;13.830;2022-11-20T06:28:28;51.27;;;28.97;;
7213;SDS011;3648;50.614;13.830;2022-11-20T06:30:56;69.23;;;39.13;;
7213;SDS011;3648;50.614;13.830;2022-11-20T06:33:23;52.30;;;29.70;;
7213;SDS011;3648;50.614;13.830;2022-11-20T06:35:50;50.97;;;29.27;;
7213;SDS011;3648;50.614;13.830;2022-11-20T06:38:18;50.10;;;31.07;;
7213;SDS011;3648;50.614;13.830;2022-11-20T06:40:45;44.77;;;27.57;;
7213;SDS011;3648;50.614;13.830;2022-11-20T06:43:12;46.47;;;26.00;;
7213;SDS011;3648;50.614;13.830;2022-11-20T06:45:39;49.30;;;29.47;;
7213;SDS011;3648;50.614;13.830;2022-11-20T06:48:06;48.90;;;29.23;;
7213;SDS011;3648;50.614;13.830;2022-11-20T06:50:34;47.00;;;28.50;;
7213;SDS011;3648;50.614;13.830;2022-11-20T06:53:02;42.37;;;25.80;;
7213;SDS011;3648;50.614;13.830;2022-11-20T06:55:31;44.50;;;26.03;;
7213;SDS011;3648;50.614;13.830;2022-11-20T06:57:58;42.80;;;27.40;;
7213;SDS011;3648;50.614;13.830;2022-11-20T07:00:25;63.20;;;37.70;;
7213;SDS011;3648;50.614;13.830;2022-11-20T07:02:52;66.80;;;36.53;;
7213;SDS011;3648;50.614;13.830;2022-11-20T07:05:20;108.43;;;55.23;;
7213;SDS011;3648;50.614;13.830;2022-11-20T07:07:47;115.97;;;58.87;;
7213;SDS011;3648;50.614;13.830;2022-11-20T07:10:14;94.13;;;51.13;;
7213;SDS011;3648;50.614;13.830;2022-11-20T07:12:48;94.80;;;49.93;;
7213;SDS011;3648;50.614;13.830;2022-11-20T07:15:16;86.93;;;43.13;;
7213;SDS011;3648;50.614;13.830;2022-11-20T07:17:43;76.27;;;39.87;;
7213;SDS011;3648;50.614;13.830;2022-11-20T07:20:10;82.07;;;43.07;;
7213;SDS011;3648;50.614;13.830;2022-11-20T07:22:38;68.43;;;38.83;;
7213;SDS011;3648;50.614;13.830;2022-11-20T07:25:05;55.77;;;32.47;;
7213;SDS011;3648;50.614;13.830;2022-11-20T07:27:33;50.93;;;30.40;;
7213;SDS011;3648;50.614;13.830;2022-11-20T07:30:02;56.30;;;31.53;;
7213;SDS011;3648;50.614;13.830;2022-11-20T07:32:30;58.30;;;30.53;;
7213;SDS011;3648;50.614;13.830;2022-11-20T07:34:57;58.43;;;31.67;;
7213;SDS011;3648;50.614;13.830;2022-11-20T07:37:24;52.53;;;29.47;;
7213;SDS011;3648;50.614;13.830;2022-11-20T07:39:51;52.20;;;28.67;;
7213;SDS011;3648;50.614;13.830;2022-11-20T07:42:18;55.67;;;30.33;;
7213;SDS011;3648;50.614;13.830;2022-11-20T07:44:45;54.97;;;32.87;;
7213;SDS011;3648;50.614;13.830;2022-11-20T07:47:14;49.33;;;28.27;;
7213;SDS011;3648;50.614;13.830;2022-11-20T07:49:41;44.50;;;26.37;;
7213;SDS011;3648;50.614;13.830;2022-11-20T07:52:08;47.83;;;27.63;;
7213;SDS011;3648;50.614;13.830;2022-11-20T07:54:35;44.33;;;26.37;;
7213;SDS011;3648;50.614;13.830;2022-11-20T07:57:03;45.07;;;26.83;;
7213;SDS011;3648;50.614;13.830;2022-11-20T07:59:30;46.60;;;27.83;;
7213;SDS011;3648;50.614;13.830;2022-11-20T08:01:57;42.73;;;25.90;;
7213;SDS011;3648;50.614;13.830;2022-11-20T08:04:25;49.77;;;25.37;;
7213;SDS011;3648;50.614;13.830;2022-11-20T08:06:53;40.70;;;24.10;;
7213;SDS011;3648;50.614;13.830;2022-11-20T08:09:20;47.57;;;25.73;;
7213;SDS011;3648;50.614;13.830;2022-11-20T08:11:47;40.63;;;24.60;;
7213;SDS011;3648;50.614;13.830;2022-11-20T08:14:32;41.57;;;25.47;;
7213;SDS011;3648;50.614;13.830;2022-11-20T08:16:59;40.40;;;24.20;;
7213;SDS011;3648;50.614;13.830;2022-11-20T08:19:28;46.17;;;25.40;;
7213;SDS011;3648;50.614;13.830;2022-11-20T08:21:55;42.53;;;24.80;;
7213;SDS011;3648;50.614;13.830;2022-11-20T08:24:22;43.90;;;24.20;;
7213;SDS011;3648;50.614;13.830;2022-11-20T08:26:49;44.97;;;24.90;;
7213;SDS011;3648;50.614;13.830;2022-11-20T08:29:17;52.90;;;29.83;;
7213;SDS011;3648;50.614;13.830;2022-11-20T08:31:44;91.40;;;44.80;;
7213;SDS011;3648;50.614;13.830;2022-11-20T08:34:12;96.13;;;45.17;;
7213;SDS011;3648;50.614;13.830;2022-11-20T08:36:40;57.37;;;32.00;;
7213;SDS011;3648;50.614;13.830;2022-11-20T08:39:11;73.67;;;37.17;;
7213;SDS011;3648;50.614;13.830;2022-11-20T08:41:39;60.00;;;33.20;;
7213;SDS011;3648;50.614;13.830;2022-11-20T08:44:06;67.60;;;34.17;;
7213;SDS011;3648;50.614;13.830;2022-11-20T08:46:34;77.33;;;35.27;;
7213;SDS011;3648;50.614;13.830;2022-11-20T08:49:03;76.97;;;37.10;;
7213;SDS011;3648;50.614;13.830;2022-11-20T08:51:31;53.70;;;31.60;;
7213;SDS011;3648;50.614;13.830;2022-11-20T08:53:59;64.40;;;40.77;;
7213;SDS011;3648;50.614;13.830;2022-11-20T08:56:27;52.13;;;32.17;;
7213;SDS011;3648;50.614;13.830;2022-11-20T08:58:54;50.80;;;28.87;;
7213;SDS011;3648;50.614;13.830;2022-11-20T09:01:22;55.00;;;27.80;;
7213;SDS011;3648;50.614;13.830;2022-11-20T09:03:50;48.37;;;27.57;;
7213;SDS011;3648;50.614;13.830;2022-11-20T09:06:17;45.73;;;25.23;;
7213;SDS011;3648;50.614;13.830;2022-11-20T09:08:45;45.97;;;22.40;;
7213;SDS011;3648;50.614;13.830;2022-11-20T09:11:13;55.13;;;27.73;;
7213;SDS011;3648;50.614;13.830;2022-11-20T09:13:41;64.30;;;34.40;;
7213;SDS011;3648;50.614;13.830;2022-11-20T09:16:08;65.23;;;37.37;;
7213;SDS011;3648;50.614;13.830;2022-11-20T09:18:35;72.30;;;39.53;;
7213;SDS011;3648;50.614;13.830;2022-11-20T09:21:04;51.60;;;28.63;;
7213;SDS011;3648;50.614;13.830;2022-11-20T09:23:33;55.67;;;30.47;;
7213;SDS011;3648;50.614;13.830;2022-11-20T09:26:03;51.03;;;32.30;;
7213;SDS011;3648;50.614;13.830;2022-11-20T09:28:32;58.40;;;34.47;;
7213;SDS011;3648;50.614;13.830;2022-11-20T09:30:59;36.87;;;22.13;;
7213;SDS011;3648;50.614;13.830;2022-11-20T09:33:27;36.47;;;18.33;;
7213;SDS011;3648;50.614;13.830;2022-11-20T09:35:54;29.43;;;17.97;;
7213;SDS011;3648;50.614;13.830;2022-11-20T09:38:21;28.43;;;16.70;;
7213;SDS011;3648;50.614;13.830;2022-11-20T09:40:51;22.43;;;15.03;;
7213;SDS011;3648;50.614;13.830;2022-11-20T09:43:28;21.50;;;14.10;;
7213;SDS011;3648;50.614;13.830;2022-11-20T09:46:08;23.13;;;13.17;;
7213;SDS011;3648;50.614;13.830;2022-11-20T09:48:43;18.67;;;12.63;;
7213;SDS011;3648;50.614;13.830;2022-11-20T09:51:36;20.60;;;13.00;;
7213;SDS011;3648;50.614;13.830;2022-11-20T09:54:13;21.50;;;13.40;;
7213;SDS011;3648;50.614;13.830;2022-11-20T09:56:44;16.50;;;11.27;;
7213;SDS011;3648;50.614;13.830;2022-11-20T09:59:20;16.67;;;11.10;;
7213;SDS011;3648;50.614;13.830;2022-11-20T10:01:56;15.37;;;10.77;;
7213;SDS011;3648;50.614;13.830;2022-11-20T10:04:25;15.17;;;10.10;;
7213;SDS011;3648;50.614;13.830;2022-11-20T10:06:56;22.63;;;14.53;;
7213;SDS011;3648;50.614;13.830;2022-11-20T10:09:31;18.77;;;13.03;;
7213;SDS011;3648;50.614;13.830;2022-11-20T10:12:05;16.93;;;10.93;;
7213;SDS011;3648;50.614;13.830;2022-11-20T10:14:42;23.40;;;13.33;;
7213;SDS011;3648;50.614;13.830;2022-11-20T10:17:23;19.33;;;12.70;;
7213;SDS011;3648;50.614;13.830;2022-11-20T10:20:09;18.90;;;12.87;;
7213;SDS011;3648;50.614;13.830;2022-11-20T10:22:49;21.53;;;13.53;;
7213;SDS011;3648;50.614;13.830;2022-11-20T10:25:28;25.77;;;18.53;;
7213;SDS011;3648;50.614;13.830;2022-11-20T10:28:04;25.20;;;19.43;;
7213;SDS011;3648;50.614;13.830;2022-11-20T10:30:44;22.37;;;16.90;;
7213;SDS011;3648;50.614;13.830;2022-11-20T10:33:15;23.37;;;17.03;;
7213;SDS011;3648;50.614;13.830;2022-11-20T10:35:49;19.37;;;13.07;;
7213;SDS011;3648;50.614;13.830;2022-11-20T10:38:23;18.87;;;12.83;;
7213;SDS011;3648;50.614;13.830;2022-11-20T10:40:59;20.43;;;15.20;;
7213;SDS011;3648;50.614;13.830;2022-11-20T10:43:42;28.03;;;15.97;;
7213;SDS011;3648;50.614;13.830;2022-11-20T10:46:12;39.37;;;19.00;;
7213;SDS011;3648;50.614;13.830;2022-11-20T10:48:43;26.20;;;15.63;;
7213;SDS011;3648;50.614;13.830;2022-11-20T10:51:14;21.57;;;14.97;;
7213;SDS011;3648;50.614;13.830;2022-11-20T10:53:50;20.90;;;13.60;;
7213;SDS011;3648;50.614;13.830;2022-11-20T10:56:27;20.77;;;13.80;;
7213;SDS011;3648;50.614;13.830;2022-11-20T10:59:03;20.70;;;13.60;;
7213;SDS011;3648;50.614;13.830;2022-11-20T11:01:52;16.57;;;11.87;;
7213;SDS011;3648;50.614;13.830;2022-11-20T11:04:28;25.13;;;16.73;;
7213;SDS011;3648;50.614;13.830;2022-11-20T11:07:03;21.60;;;13.87;;
7213;SDS011;3648;50.614;13.830;2022-11-20T11:09:36;18.27;;;12.47;;
7213;SDS011;3648;50.614;13.830;2022-11-20T11:12:07;14.87;;;11.80;;
7213;SDS011;3648;50.614;13.830;2022-11-20T11:14:42;19.07;;;13.17;;
7213;SDS011;3648;50.614;13.830;2022-11-20T11:17:22;21.13;;;13.80;;
7213;SDS011;3648;50.614;13.830;2022-11-20T11:19:57;21.73;;;14.47;;
7213;SDS011;3648;50.614;13.830;2022-11-20T11:22:25;21.60;;;13.87;;
7213;SDS011;3648;50.614;13.830;2022-11-20T11:24:54;18.20;;;13.73;;
7213;SDS011;3648;50.614;13.830;2022-11-20T11:27:22;17.27;;;12.13;;
7213;SDS011;3648;50.614;13.830;2022-11-20T11:29:49;20.50;;;13.50;;
7213;SDS011;3648;50.614;13.830;2022-11-20T11:32:28;19.00;;;13.23;;
7213;SDS011;3648;50.614;13.830;2022-11-20T11:34:59;21.43;;;13.90;;
7213;SDS011;3648;50.614;13.830;2022-11-20T11:37:26;20.80;;;13.23;;
7213;SDS011;3648;50.614;13.830;2022-11-20T11:39:58;22.47;;;15.03;;
7213;SDS011;3648;50.614;13.830;2022-11-20T11:42:25;17.70;;;13.37;;
7213;SDS011;3648;50.614;13.830;2022-11-20T11:44:55;24.93;;;15.57;;
7213;SDS011;3648;50.614;13.830;2022-11-20T11:47:36;18.97;;;12.87;;
7213;SDS011;3648;50.614;13.830;2022-11-20T11:50:14;21.70;;;14.13;;
7213;SDS011;3648;50.614;13.830;2022-11-20T11:52:43;22.30;;;14.47;;
7213;SDS011;3648;50.614;13.830;2022-11-20T11:55:15;24.07;;;15.23;;
7213;SDS011;3648;50.614;13.830;2022-11-20T11:57:49;25.97;;;16.07;;
7213;SDS011;3648;50.614;13.830;2022-11-20T12:00:21;21.73;;;14.53;;
7213;SDS011;3648;50.614;13.830;2022-11-20T12:02:52;23.17;;;15.20;;
7213;SDS011;3648;50.614;13.830;2022-11-20T12:05:25;18.87;;;12.70;;
7213;SDS011;3648;50.614;13.830;2022-11-20T12:07:56;22.50;;;13.03;;
7213;SDS011;3648;50.614;13.830;2022-11-20T12:10:33;24.67;;;15.50;;
7213;SDS011;3648;50.614;13.830;2022-11-20T12:13:09;22.23;;;15.30;;
7213;SDS011;3648;50.614;13.830;2022-11-20T12:15:51;21.77;;;14.17;;
7213;SDS011;3648;50.614;13.830;2022-11-20T12:18:21;20.07;;;13.37;;
7213;SDS011;3648;50.614;13.830;2022-11-20T12:20:53;19.53;;;13.73;;
7213;SDS011;3648;50.614;13.830;2022-11-20T12:23:30;23.97;;;14.83;;
7213;SDS011;3648;50.614;13.830;2022-11-20T12:26:10;19.87;;;13.27;;
7213;SDS011;3648;50.614;13.830;2022-11-20T12:28:50;18.23;;;13.60;;
7213;SDS011;3648;50.614;13.830;2022-11-20T12:31:40;17.50;;;12.90;;
7213;SDS011;3648;50.614;13.830;2022-11-20T12:34:35;19.03;;;12.63;;
7213;SDS011;3648;50.614;13.830;2022-11-20T12:37:15;16.67;;;11.83;;
7213;SDS011;3648;50.614;13.830;2022-11-20T12:39:52;17.87;;;12.70;;
7213;SDS011;3648;50.614;13.830;2022-11-20T12:42:37;20.10;;;13.17;;
7213;SDS011;3648;50.614;13.830;2022-11-20T12:48:46;20.17;;;14.10;;
7213;SDS011;3648;50.614;13.830;2022-11-20T12:51:34;20.93;;;13.17;;
7213;SDS011;3648;50.614;13.830;2022-11-20T12:57:18;20.80;;;14.03;;
7213;SDS011;3648;50.614;13.830;2022-11-20T12:59:55;18.30;;;13.53;;
7213;SDS011;3648;50.614;13.830;2022-11-20T13:02:30;23.87;;;15.93;;
7213;SDS011;3648;50.614;13.830;2022-11-20T13:05:12;23.70;;;14.27;;
7213;SDS011;3648;50.614;13.830;2022-11-20T13:07:47;20.73;;;13.63;;
7213;SDS011;3648;50.614;13.830;2022-11-20T13:10:18;41.40;;;27.87;;
7213;SDS011;3648;50.614;13.830;2022-11-20T13:13:11;22.07;;;14.67;;
7213;SDS011;3648;50.614;13.830;2022-11-20T13:15:45;23.53;;;14.73;;
7213;SDS011;3648;50.614;13.830;2022-11-20T13:18:18;20.40;;;13.43;;
7213;SDS011;3648;50.614;13.830;2022-11-20T13:20:45;21.00;;;14.30;;
7213;SDS011;3648;50.614;13.830;2022-11-20T13:23:24;23.27;;;14.87;;
7213;SDS011;3648;50.614;13.830;2022-11-20T13:26:02;23.73;;;16.00;;
7213;SDS011;3648;50.614;13.830;2022-11-20T13:28:30;24.17;;;16.50;;
7213;SDS011;3648;50.614;13.830;2022-11-20T13:30:58;24.63;;;16.03;;
7213;SDS011;3648;50.614;13.830;2022-11-20T13:33:27;28.90;;;17.53;;
7213;SDS011;3648;50.614;13.830;2022-11-20T13:35:57;26.77;;;16.70;;
7213;SDS011;3648;50.614;13.830;2022-11-20T13:38:28;25.67;;;15.83;;
7213;SDS011;3648;50.614;13.830;2022-11-20T13:41:06;27.33;;;17.53;;
7213;SDS011;3648;50.614;13.830;2022-11-20T13:43:48;26.37;;;17.30;;
7213;SDS011;3648;50.614;13.830;2022-11-20T13:46:17;27.83;;;17.77;;
7213;SDS011;3648;50.614;13.830;2022-11-20T13:48:49;28.27;;;17.90;;
7213;SDS011;3648;50.614;13.830;2022-11-20T13:51:25;29.43;;;18.20;;
7213;SDS011;3648;50.614;13.830;2022-11-20T13:54:06;35.27;;;21.67;;
7213;SDS011;3648;50.614;13.830;2022-11-20T13:56:52;38.07;;;22.70;;
7213;SDS011;3648;50.614;13.830;2022-11-20T13:59:33;35.77;;;22.03;;
7213;SDS011;3648;50.614;13.830;2022-11-20T14:02:11;40.77;;;22.93;;
7213;SDS011;3648;50.614;13.830;2022-11-20T14:04:42;38.17;;;24.40;;
7213;SDS011;3648;50.614;13.830;2022-11-20T14:07:11;40.83;;;24.70;;
7213;SDS011;3648;50.614;13.830;2022-11-20T14:09:48;44.10;;;24.33;;
7213;SDS011;3648;50.614;13.830;2022-11-20T14:12:18;40.90;;;24.53;;
7213;SDS011;3648;50.614;13.830;2022-11-20T14:14:48;39.60;;;22.97;;
7213;SDS011;3648;50.614;13.830;2022-11-20T14:17:18;46.17;;;24.63;;
7213;SDS011;3648;50.614;13.830;2022-11-20T14:19:46;42.77;;;24.23;;
7213;SDS011;3648;50.614;13.830;2022-11-20T14:22:18;46.77;;;26.43;;
7213;SDS011;3648;50.614;13.830;2022-11-20T14:24:48;42.47;;;26.07;;
7213;SDS011;3648;50.614;13.830;2022-11-20T14:27:27;42.90;;;25.80;;
7213;SDS011;3648;50.614;13.830;2022-11-20T14:29:54;49.37;;;29.27;;
7213;SDS011;3648;50.614;13.830;2022-11-20T14:32:22;44.00;;;26.23;;
7213;SDS011;3648;50.614;13.830;2022-11-20T14:34:54;47.97;;;26.90;;
7213;SDS011;3648;50.614;13.830;2022-11-20T14:37:24;46.90;;;26.83;;
7213;SDS011;3648;50.614;13.830;2022-11-20T14:39:55;46.13;;;26.97;;
7213;SDS011;3648;50.614;13.830;2022-11-20T14:42:24;49.17;;;27.03;;
7213;SDS011;3648;50.614;13.830;2022-11-20T14:44:52;50.50;;;28.40;;
7213;SDS011;3648;50.614;13.830;2022-11-20T14:47:22;49.97;;;29.80;;
7213;SDS011;3648;50.614;13.830;2022-11-20T14:49:51;50.40;;;27.77;;
7213;SDS011;3648;50.614;13.830;2022-11-20T14:52:20;46.90;;;28.03;;
7213;SDS011;3648;50.614;13.830;2022-11-20T14:54:48;47.77;;;27.90;;
7213;SDS011;3648;50.614;13.830;2022-11-20T14:57:22;44.17;;;27.60;;
7213;SDS011;3648;50.614;13.830;2022-11-20T14:59:51;46.20;;;27.27;;
7213;SDS011;3648;50.614;13.830;2022-11-20T15:02:34;48.27;;;27.47;;
7213;SDS011;3648;50.614;13.830;2022-11-20T15:05:05;46.33;;;25.50;;